sensor_id;sensor_type;location;lat;lon;timestamp;pressure;altitude;pressure_sealevel;temperature;humidity
9257;BME280;4665;51.368;6.782;2023-04-01T00:01:05;99051.00;;;9.08;100.00
9257;BME280;4665;51.368;6.782;2023-04-01T00:03:31;99056.19;;;9.16;100.00
9257;BME280;4665;51.368;6.782;2023-04-01T00:05:59;99065.25;;;9.21;100.00
9257;BME280;4665;51.368;6.782;2023-04-01T00:08:26;99046.13;;;9.11;100.00
9257;BME280;4665;51.368;6.782;2023-04-01T00:10:52;99050.47;;;9.19;100.00
9257;BME280;4665;51.368;6.782;2023-04-01T00:13:18;99058.53;;;9.25;100.00
9257;BME280;4665;51.368;6.782;2023-04-01T00:15:44;99055.88;;;9.25;100.00
9257;BME280;4665;51.368;6.782;2023-04-01T00:18:11;99049.09;;;9.23;100.00
9257;BME280;4665;51.368;6.782;2023-04-01T00:20:37;99052.53;;;9.17;100.00
9257;BME280;4665;51.368;6.782;2023-04-01T00:23:02;99049.31;;;9.21;100.00
9257;BME280;4665;51.368;6.782;2023-04-01T00:25:28;99057.28;;;9.21;100.00
9257;BME280;4665;51.368;6.782;2023-04-01T00:27:53;99049.41;;;9.13;100.00
9257;BME280;4665;51.368;6.782;2023-04-01T00:30:19;99054.09;;;9.11;100.00
9257;BME280;4665;51.368;6.782;2023-04-01T00:32:45;99063.97;;;9.17;100.00
9257;BME280;4665;51.368;6.782;2023-04-01T00:35:11;99063.75;;;9.19;100.00
9257;BME280;4665;51.368;6.782;2023-04-01T00:37:38;99048.13;;;9.09;100.00
9257;BME280;4665;51.368;6.782;2023-04-01T00:40:06;99055.75;;;9.12;100.00
9257;BME280;4665;51.368;6.782;2023-04-01T00:42:32;99063.25;;;9.09;100.00
9257;BME280;4665;51.368;6.782;2023-04-01T00:44:58;99059.78;;;9.08;100.00
9257;BME280;4665;51.368;6.782;2023-04-01T00:47:25;99060.78;;;9.07;100.00
9257;BME280;4665;51.368;6.782;2023-04-01T00:49:53;99055.59;;;8.99;100.00
9257;BME280;4665;51.368;6.782;2023-04-01T00:52:22;99068.09;;;9.05;100.00
9257;BME280;4665;51.368;6.782;2023-04-01T00:54:53;99059.22;;;9.13;100.00
9257;BME280;4665;51.368;6.782;2023-04-01T00:57:26;99042.38;;;9.05;100.00
9257;BME280;4665;51.368;6.782;2023-04-01T00:59:54;99054.25;;;9.10;100.00
9257;BME280;4665;51.368;6.782;2023-04-01T01:02:21;99047.69;;;9.05;100.00
9257;BME280;4665;51.368;6.782;2023-04-01T01:04:46;99040.94;;;9.03;100.00
9257;BME280;4665;51.368;6.782;2023-04-01T01:07:15;99045.22;;;9.04;100.00
9257;BME280;4665;51.368;6.782;2023-04-01T01:15:24;99049.25;;;9.00;100.00
9257;BME280;4665;51.368;6.782;2023-04-01T01:18:12;99058.31;;;9.05;100.00
9257;BME280;4665;51.368;6.782;2023-04-01T01:20:52;99041.09;;;9.01;100.00
9257;BME280;4665;51.368;6.782;2023-04-01T01:32:14;99037.00;;;8.99;100.00
9257;BME280;4665;51.368;6.782;2023-04-01T01:37:32;99040.84;;;8.96;100.00
9257;BME280;4665;51.368;6.782;2023-04-01T01:40:03;99029.19;;;8.97;100.00
9257;BME280;4665;51.368;6.782;2023-04-01T01:42:31;99033.78;;;9.03;100.00
9257;BME280;4665;51.368;6.782;2023-04-01T01:44:59;99038.88;;;9.05;100.00
9257;BME280;4665;51.368;6.782;2023-04-01T01:47:28;99030.09;;;9.04;100.00
9257;BME280;4665;51.368;6.782;2023-04-01T01:49:55;99034.50;;;9.12;100.00
9257;BME280;4665;51.368;6.782;2023-04-01T01:52:22;99034.66;;;9.11;100.00
9257;BME280;4665;51.368;6.782;2023-04-01T01:54:49;99025.88;;;9.10;100.00
9257;BME280;4665;51.368;6.782;2023-04-01T01:57:16;99025.25;;;9.08;100.00
9257;BME280;4665;51.368;6.782;2023-04-01T01:59:45;99029.34;;;9.11;100.00
9257;BME280;4665;51.368;6.782;2023-04-01T02:02:12;99033.66;;;9.12;100.00
9257;BME280;4665;51.368;6.782;2023-04-01T02:04:40;99033.84;;;9.10;100.00
9257;BME280;4665;51.368;6.782;2023-04-01T02:07:11;99025.59;;;9.05;100.00
9257;BME280;4665;51.368;6.782;2023-04-01T02:09:40;99036.31;;;9.12;100.00
9257;BME280;4665;51.368;6.782;2023-04-01T02:12:08;99034.97;;;9.01;100.00
9257;BME280;4665;51.368;6.782;2023-04-01T02:14:52;99038.84;;;8.98;100.00
9257;BME280;4665;51.368;6.782;2023-04-01T02:17:20;99040.09;;;9.02;100.00
9257;BME280;4665;51.368;6.782;2023-04-01T02:19:50;99036.72;;;8.94;100.00
9257;BME280;4665;51.368;6.782;2023-04-01T02:22:21;99042.88;;;8.94;100.00
9257;BME280;4665;51.368;6.782;2023-04-01T02:24:47;99050.66;;;8.96;100.00
9257;BME280;4665;51.368;6.782;2023-04-01T02:27:14;99039.56;;;8.92;100.00
9257;BME280;4665;51.368;6.782;2023-04-01T02:29:40;99046.34;;;8.95;100.00
9257;BME280;4665;51.368;6.782;2023-04-01T02:32:06;99040.38;;;8.93;100.00
9257;BME280;4665;51.368;6.782;2023-04-01T02:34:33;99052.47;;;8.95;100.00
9257;BME280;4665;51.368;6.782;2023-04-01T02:36:58;99046.34;;;8.95;100.00
9257;BME280;4665;51.368;6.782;2023-04-01T02:39:24;99045.53;;;8.94;100.00
9257;BME280;4665;51.368;6.782;2023-04-01T02:41:51;99051.38;;;8.90;100.00
9257;BME280;4665;51.368;6.782;2023-04-01T02:44:17;99058.53;;;8.89;100.00
9257;BME280;4665;51.368;6.782;2023-04-01T02:46:42;99049.53;;;8.90;100.00
9257;BME280;4665;51.368;6.782;2023-04-01T02:49:08;99050.34;;;8.91;100.00
9257;BME280;4665;51.368;6.782;2023-04-01T02:51:33;99047.06;;;8.89;100.00
9257;BME280;4665;51.368;6.782;2023-04-01T02:53:59;99058.06;;;8.85;100.00
9257;BME280;4665;51.368;6.782;2023-04-01T02:56:25;99062.56;;;8.85;100.00
9257;BME280;4665;51.368;6.782;2023-04-01T02:58:51;99068.69;;;8.85;100.00
9257;BME280;4665;51.368;6.782;2023-04-01T03:01:16;99067.31;;;8.90;100.00
9257;BME280;4665;51.368;6.782;2023-04-01T03:03:42;99051.22;;;8.76;100.00
9257;BME280;4665;51.368;6.782;2023-04-01T03:06:09;99064.50;;;8.76;100.00
9257;BME280;4665;51.368;6.782;2023-04-01T03:08:35;99066.03;;;8.85;100.00
9257;BME280;4665;51.368;6.782;2023-04-01T03:11:01;99068.25;;;8.82;100.00
9257;BME280;4665;51.368;6.782;2023-04-01T03:13:26;99069.16;;;8.74;100.00
9257;BME280;4665;51.368;6.782;2023-04-01T03:15:52;99081.88;;;8.79;100.00
9257;BME280;4665;51.368;6.782;2023-04-01T03:18:18;99078.31;;;8.72;100.00
9257;BME280;4665;51.368;6.782;2023-04-01T03:20:43;99056.00;;;8.66;100.00
9257;BME280;4665;51.368;6.782;2023-04-01T03:23:09;99065.59;;;8.67;100.00
9257;BME280;4665;51.368;6.782;2023-04-01T03:25:34;99087.94;;;8.73;100.00
9257;BME280;4665;51.368;6.782;2023-04-01T03:27:59;99084.00;;;8.69;100.00
9257;BME280;4665;51.368;6.782;2023-04-01T03:30:25;99090.94;;;8.70;100.00
9257;BME280;4665;51.368;6.782;2023-04-01T03:32:51;99072.91;;;8.65;100.00
9257;BME280;4665;51.368;6.782;2023-04-01T03:35:17;99076.69;;;8.71;100.00
9257;BME280;4665;51.368;6.782;2023-04-01T03:37:43;99086.44;;;8.70;100.00
9257;BME280;4665;51.368;6.782;2023-04-01T03:40:09;99088.13;;;8.71;100.00
9257;BME280;4665;51.368;6.782;2023-04-01T03:42:35;99084.81;;;8.69;100.00
9257;BME280;4665;51.368;6.782;2023-04-01T03:45:01;99084.63;;;8.71;100.00
9257;BME280;4665;51.368;6.782;2023-04-01T03:47:26;99096.72;;;8.73;100.00
9257;BME280;4665;51.368;6.782;2023-04-01T03:49:52;99092.22;;;8.74;100.00
9257;BME280;4665;51.368;6.782;2023-04-01T03:52:17;99101.66;;;8.76;100.00
9257;BME280;4665;51.368;6.782;2023-04-01T03:54:43;99099.00;;;8.76;100.00
9257;BME280;4665;51.368;6.782;2023-04-01T03:57:08;99099.00;;;8.76;100.00
9257;BME280;4665;51.368;6.782;2023-04-01T03:59:34;99087.75;;;8.74;100.00
9257;BME280;4665;51.368;6.782;2023-04-01T04:01:59;99094.34;;;8.78;100.00
9257;BME280;4665;51.368;6.782;2023-04-01T04:04:25;99099.25;;;8.81;100.00
9257;BME280;4665;51.368;6.782;2023-04-01T04:06:51;99098.00;;;8.77;100.00
9257;BME280;4665;51.368;6.782;2023-04-01T04:09:16;99104.56;;;8.81;100.00
9257;BME280;4665;51.368;6.782;2023-04-01T04:11:41;99086.09;;;8.73;100.00
9257;BME280;4665;51.368;6.782;2023-04-01T04:14:07;99090.38;;;8.74;100.00
9257;BME280;4665;51.368;6.782;2023-04-01T04:16:35;99101.66;;;8.76;100.00
9257;BME280;4665;51.368;6.782;2023-04-01T04:19:02;99087.19;;;8.79;100.00
9257;BME280;4665;51.368;6.782;2023-04-01T04:21:27;99107.88;;;8.83;100.00
9257;BME280;4665;51.368;6.782;2023-04-01T04:23:53;99108.69;;;8.84;100.00
9257;BME280;4665;51.368;6.782;2023-04-01T04:26:18;99104.94;;;8.78;100.00
9257;BME280;4665;51.368;6.782;2023-04-01T04:28:44;99094.72;;;8.75;100.00
9257;BME280;4665;51.368;6.782;2023-04-01T04:31:09;99104.47;;;8.75;100.00
9257;BME280;4665;51.368;6.782;2023-04-01T04:33:35;99117.84;;;8.81;100.00
9257;BME280;4665;51.368;6.782;2023-04-01T04:36:01;99107.59;;;8.78;100.00
9257;BME280;4665;51.368;6.782;2023-04-01T04:38:27;99116.84;;;8.82;100.00
9257;BME280;4665;51.368;6.782;2023-04-01T04:40:53;99116.84;;;8.82;100.00
9257;BME280;4665;51.368;6.782;2023-04-01T04:43:18;99115.19;;;8.81;100.00
9257;BME280;4665;51.368;6.782;2023-04-01T04:45:44;99115.56;;;8.78;100.00
9257;BME280;4665;51.368;6.782;2023-04-01T04:48:11;99103.31;;;8.77;100.00
9257;BME280;4665;51.368;6.782;2023-04-01T04:50:41;99110.91;;;8.80;100.00
9257;BME280;4665;51.368;6.782;2023-04-01T04:53:10;99117.84;;;8.81;100.00
9257;BME280;4665;51.368;6.782;2023-04-01T04:55:35;99111.28;;;8.77;100.00
9257;BME280;4665;51.368;6.782;2023-04-01T04:58:00;99114.38;;;8.81;100.00
9257;BME280;4665;51.368;6.782;2023-04-01T05:00:26;99120.13;;;8.70;100.00
9257;BME280;4665;51.368;6.782;2023-04-01T05:02:51;99132.16;;;8.80;100.00
9257;BME280;4665;51.368;6.782;2023-04-01T05:05:17;99131.97;;;8.82;100.00
9257;BME280;4665;51.368;6.782;2023-04-01T05:07:42;99122.25;;;8.74;100.00
9257;BME280;4665;51.368;6.782;2023-04-01T05:10:08;99122.44;;;8.73;100.00
9257;BME280;4665;51.368;6.782;2023-04-01T05:12:34;99129.50;;;8.80;100.00
9257;BME280;4665;51.368;6.782;2023-04-01T05:15:06;99133.59;;;8.83;100.00
9257;BME280;4665;51.368;6.782;2023-04-01T05:17:31;99140.50;;;8.77;100.00
9257;BME280;4665;51.368;6.782;2023-04-01T05:19:57;99143.41;;;8.82;100.00
9257;BME280;4665;51.368;6.782;2023-04-01T05:22:23;99128.91;;;8.70;100.00
9257;BME280;4665;51.368;6.782;2023-04-01T05:24:48;99132.59;;;8.69;100.00
9257;BME280;4665;51.368;6.782;2023-04-01T05:27:14;99134.16;;;8.78;100.00
9257;BME280;4665;51.368;6.782;2023-04-01T05:29:39;99144.13;;;8.76;100.00
9257;BME280;4665;51.368;6.782;2023-04-01T05:32:05;99142.94;;;8.79;100.00
9257;BME280;4665;51.368;6.782;2023-04-01T05:34:30;99143.13;;;8.77;100.00
9257;BME280;4665;51.368;6.782;2023-04-01T05:36:56;99139.91;;;8.67;100.00
9257;BME280;4665;51.368;6.782;2023-04-01T05:39:21;99138.28;;;8.66;100.00
9257;BME280;4665;51.368;6.782;2023-04-01T05:41:47;99141.28;;;8.63;100.00
9257;BME280;4665;51.368;6.782;2023-04-01T05:44:12;99145.59;;;8.64;100.00
9257;BME280;4665;51.368;6.782;2023-04-01T05:46:37;99160.44;;;8.73;100.00
9257;BME280;4665;51.368;6.782;2023-04-01T05:49:03;99154.22;;;8.66;100.00
9257;BME280;4665;51.368;6.782;2023-04-01T05:51:28;99152.09;;;8.61;100.00
9257;BME280;4665;51.368;6.782;2023-04-01T05:53:54;99160.59;;;8.72;100.00
9257;BME280;4665;51.368;6.782;2023-04-01T05:56:19;99160.78;;;8.70;100.00
9257;BME280;4665;51.368;6.782;2023-04-01T05:58:47;99167.38;;;8.74;100.00
9257;BME280;4665;51.368;6.782;2023-04-01T06:01:15;99162.81;;;8.68;100.00
9257;BME280;4665;51.368;6.782;2023-04-01T06:03:41;99150.44;;;8.60;100.00
9257;BME280;4665;51.368;6.782;2023-04-01T06:06:13;99178.91;;;8.67;100.00
9257;BME280;4665;51.368;6.782;2023-04-01T06:08:40;99176.38;;;8.73;100.00
9257;BME280;4665;51.368;6.782;2023-04-01T06:27:12;99195.59;;;8.75;100.00
9257;BME280;4665;51.368;6.782;2023-04-01T06:32:51;99189.38;;;8.68;100.00
9257;BME280;4665;51.368;6.782;2023-04-01T06:35:31;99198.59;;;8.72;100.00
9257;BME280;4665;51.368;6.782;2023-04-01T06:46:22;99202.81;;;8.67;100.00
9257;BME280;4665;51.368;6.782;2023-04-01T06:54:10;99207.47;;;8.64;100.00
9257;BME280;4665;51.368;6.782;2023-04-01T06:56:40;99212.59;;;8.66;100.00
9257;BME280;4665;51.368;6.782;2023-04-01T06:59:12;99211.13;;;8.63;100.00
9257;BME280;4665;51.368;6.782;2023-04-01T07:01:53;99220.09;;;8.62;100.00
9257;BME280;4665;51.368;6.782;2023-04-01T07:04:30;99219.91;;;8.64;100.00
9257;BME280;4665;51.368;6.782;2023-04-01T07:07:12;99231.84;;;8.68;100.00
9257;BME280;4665;51.368;6.782;2023-04-01T07:09:42;99226.69;;;8.67;100.00
9257;BME280;4665;51.368;6.782;2023-04-01T07:12:23;99231.09;;;8.74;100.00
9257;BME280;4665;51.368;6.782;2023-04-01T07:14:54;99228.81;;;8.71;100.00
9257;BME280;4665;51.368;6.782;2023-04-01T07:17:27;99232.81;;;8.67;100.00
9257;BME280;4665;51.368;6.782;2023-04-01T07:22:39;99237.97;;;8.69;100.00
9257;BME280;4665;51.368;6.782;2023-04-01T07:25:13;99237.97;;;8.69;100.00
9257;BME280;4665;51.368;6.782;2023-04-01T07:27:41;99242.09;;;8.71;100.00
9257;BME280;4665;51.368;6.782;2023-04-01T07:30:21;99241.97;;;8.64;100.00
9257;BME280;4665;51.368;6.782;2023-04-01T07:33:14;99254.22;;;8.66;100.00
9257;BME280;4665;51.368;6.782;2023-04-01T07:38:52;99256.34;;;8.70;100.00
9257;BME280;4665;51.368;6.782;2023-04-01T07:41:50;99259.66;;;8.72;100.00
9257;BME280;4665;51.368;6.782;2023-04-01T07:44:31;99260.84;;;8.70;100.00
9257;BME280;4665;51.368;6.782;2023-04-01T07:47:28;99265.97;;;8.71;100.00
9257;BME280;4665;51.368;6.782;2023-04-01T07:50:25;99266.63;;;8.73;100.00
9257;BME280;4665;51.368;6.782;2023-04-01T07:53:25;99269.94;;;8.75;100.00
9257;BME280;4665;51.368;6.782;2023-04-01T07:56:06;99278.88;;;8.74;100.00
9257;BME280;4665;51.368;6.782;2023-04-01T07:58:40;99284.19;;;8.74;100.00
9257;BME280;4665;51.368;6.782;2023-04-01T08:01:13;99274.22;;;8.76;100.00
9257;BME280;4665;51.368;6.782;2023-04-01T08:06:36;99287.88;;;8.73;100.00
9257;BME280;4665;51.368;6.782;2023-04-01T08:14:53;99304.38;;;8.83;100.00
9257;BME280;4665;51.368;6.782;2023-04-01T08:22:39;99310.50;;;8.84;100.00
9257;BME280;4665;51.368;6.782;2023-04-01T08:25:11;99314.00;;;8.84;100.00
9257;BME280;4665;51.368;6.782;2023-04-01T08:27:51;99312.97;;;8.85;100.00
9257;BME280;4665;51.368;6.782;2023-04-01T08:30:23;99324.25;;;8.88;100.00
9257;BME280;4665;51.368;6.782;2023-04-01T08:32:59;99331.41;;;8.87;100.00
9257;BME280;4665;51.368;6.782;2023-04-01T08:35:36;99335.16;;;8.93;100.00
9257;BME280;4665;51.368;6.782;2023-04-01T08:38:11;99337.16;;;8.91;100.00
9257;BME280;4665;51.368;6.782;2023-04-01T08:52:30;99346.97;;;8.90;100.00
9257;BME280;4665;51.368;6.782;2023-04-01T08:57:56;99346.59;;;8.93;100.00
9257;BME280;4665;51.368;6.782;2023-04-01T09:00:50;99351.56;;;8.96;100.00
9257;BME280;4665;51.368;6.782;2023-04-01T09:06:25;99358.53;;;8.97;100.00
9257;BME280;4665;51.368;6.782;2023-04-01T09:14:26;99367.63;;;9.03;100.00
9257;BME280;4665;51.368;6.782;2023-04-01T09:23:10;99373.75;;;9.03;100.00
9257;BME280;4665;51.368;6.782;2023-04-01T09:28:20;99377.53;;;9.09;100.00
9257;BME280;4665;51.368;6.782;2023-04-01T09:36:44;99382.78;;;9.17;100.00
9257;BME280;4665;51.368;6.782;2023-04-01T09:44:36;99391.94;;;9.15;100.00
9257;BME280;4665;51.368;6.782;2023-04-01T09:47:25;99394.34;;;9.24;100.00
9257;BME280;4665;51.368;6.782;2023-04-01T09:53:32;99400.09;;;9.28;100.00
9257;BME280;4665;51.368;6.782;2023-04-01T09:59:07;99403.41;;;9.30;100.00
9257;BME280;4665;51.368;6.782;2023-04-01T10:38:28;99444.75;;;9.33;100.00
9257;BME280;4665;51.368;6.782;2023-04-01T10:44:22;99452.81;;;9.39;100.00
9257;BME280;4665;51.368;6.782;2023-04-01T10:52:50;99454.38;;;9.34;100.00
9257;BME280;4665;51.368;6.782;2023-04-01T11:29:00;99487.91;;;9.35;100.00
9257;BME280;4665;51.368;6.782;2023-04-01T11:37:31;99494.66;;;9.45;100.00
9257;BME280;4665;51.368;6.782;2023-04-01T11:45:36;99512.59;;;9.66;100.00
9257;BME280;4665;51.368;6.782;2023-04-01T12:04:45;99544.09;;;9.55;100.00
9257;BME280;4665;51.368;6.782;2023-04-01T12:10:20;99543.91;;;9.56;100.00
9257;BME280;4665;51.368;6.782;2023-04-01T12:16:03;99557.78;;;9.66;100.00
9257;BME280;4665;51.368;6.782;2023-04-01T12:21:22;99561.16;;;9.60;100.00
9257;BME280;4665;51.368;6.782;2023-04-01T12:26:55;99566.47;;;9.60;100.00
9257;BME280;4665;51.368;6.782;2023-04-01T12:36:26;99572.72;;;9.67;100.00
9257;BME280;4665;51.368;6.782;2023-04-01T12:38:40;99574.41;;;9.68;100.00
9257;BME280;4665;51.368;6.782;2023-04-01T12:44:16;99585.97;;;9.76;100.00
9257;BME280;4665;51.368;6.782;2023-04-01T12:46:59;99583.78;;;9.79;100.00
9257;BME280;4665;51.368;6.782;2023-04-01T12:52:03;99585.91;;;9.84;100.00
9257;BME280;4665;51.368;6.782;2023-04-01T12:58:07;99593.66;;;9.71;100.00
9257;BME280;4665;51.368;6.782;2023-04-01T13:03:47;99598.03;;;9.63;100.00
9257;BME280;4665;51.368;6.782;2023-04-01T13:17:29;99611.63;;;9.68;100.00
9257;BME280;4665;51.368;6.782;2023-04-01T13:28:37;99627.56;;;9.68;100.00
9257;BME280;4665;51.368;6.782;2023-04-01T13:31:26;99630.78;;;9.64;100.00
9257;BME280;4665;51.368;6.782;2023-04-01T13:34:13;99637.59;;;9.58;100.00
9257;BME280;4665;51.368;6.782;2023-04-01T13:37:04;99641.94;;;9.59;100.00
9257;BME280;4665;51.368;6.782;2023-04-01T13:39:40;99639.28;;;9.59;100.00
9257;BME280;4665;51.368;6.782;2023-04-01T13:42:23;99642.91;;;9.58;100.00
9257;BME280;4665;51.368;6.782;2023-04-01T13:45:00;99634.31;;;9.56;100.00
9257;BME280;4665;51.368;6.782;2023-04-01T13:56:16;99653.53;;;9.66;100.00
9257;BME280;4665;51.368;6.782;2023-04-01T14:01:11;99650.72;;;9.60;100.00
9257;BME280;4665;51.368;6.782;2023-04-01T14:06:26;99658.06;;;9.58;100.00
9257;BME280;4665;51.368;6.782;2023-04-01T14:12:01;99661.22;;;9.53;100.00
9257;BME280;4665;51.368;6.782;2023-04-01T14:14:39;99667.88;;;9.57;100.00
9257;BME280;4665;51.368;6.782;2023-04-01T14:23:03;99678.78;;;9.62;100.00
9257;BME280;4665;51.368;6.782;2023-04-01T14:28:51;99681.81;;;9.59;100.00
9257;BME280;4665;51.368;6.782;2023-04-01T14:37:15;99687.78;;;9.61;100.00
9257;BME280;4665;51.368;6.782;2023-04-01T14:40:05;99686.78;;;9.62;100.00
9257;BME280;4665;51.368;6.782;2023-04-01T14:42:36;99693.75;;;9.63;100.00
9257;BME280;4665;51.368;6.782;2023-04-01T14:47:48;99700.06;;;9.62;100.00
9257;BME280;4665;51.368;6.782;2023-04-01T14:50:18;99702.72;;;9.62;100.00
9257;BME280;4665;51.368;6.782;2023-04-01T14:53:28;99705.75;;;9.59;100.00
9257;BME280;4665;51.368;6.782;2023-04-01T14:55:55;99708.03;;;9.62;100.00
9257;BME280;4665;51.368;6.782;2023-04-01T14:58:23;99713.72;;;9.59;100.00
9257;BME280;4665;51.368;6.782;2023-04-01T15:01:21;99716.22;;;9.61;100.00
9257;BME280;4665;51.368;6.782;2023-04-01T15:06:56;99721.03;;;9.57;100.00
9257;BME280;4665;51.368;6.782;2023-04-01T15:15:36;99738.03;;;9.48;100.00
9257;BME280;4665;51.368;6.782;2023-04-01T15:18:11;99739.03;;;9.47;100.00
9257;BME280;4665;51.368;6.782;2023-04-01T15:23:25;99750.66;;;9.46;100.00
9257;BME280;4665;51.368;6.782;2023-04-01T15:34:23;99763.28;;;9.44;100.00
9257;BME280;4665;51.368;6.782;2023-04-01T15:37:04;99755.50;;;9.42;100.00
9257;BME280;4665;51.368;6.782;2023-04-01T15:42:24;99758.16;;;9.42;100.00
9257;BME280;4665;51.368;6.782;2023-04-01T15:45:17;99768.28;;;9.47;100.00
9257;BME280;4665;51.368;6.782;2023-04-01T15:50:54;99772.44;;;9.50;100.00
9257;BME280;4665;51.368;6.782;2023-04-01T15:53:35;99772.94;;;9.45;100.00
9257;BME280;4665;51.368;6.782;2023-04-01T16:01:50;99795.53;;;9.41;100.00
9257;BME280;4665;51.368;6.782;2023-04-01T16:07:43;99798.66;;;9.44;100.00
9257;BME280;4665;51.368;6.782;2023-04-01T16:10:38;99809.16;;;9.46;100.00
9257;BME280;4665;51.368;6.782;2023-04-01T16:13:32;99796.88;;;9.45;100.00
9257;BME280;4665;51.368;6.782;2023-04-01T16:21:57;99819.44;;;9.49;100.00
9257;BME280;4665;51.368;6.782;2023-04-01T16:24:35;99817.44;;;9.51;100.00
9257;BME280;4665;51.368;6.782;2023-04-01T16:27:14;99818.44;;;9.50;100.00
9257;BME280;4665;51.368;6.782;2023-04-01T16:32:41;99821.75;;;9.52;100.00
9257;BME280;4665;51.368;6.782;2023-04-01T16:35:23;99833.06;;;9.54;100.00
9257;BME280;4665;51.368;6.782;2023-04-01T16:40:44;99844.69;;;9.53;100.00
9257;BME280;4665;51.368;6.782;2023-04-01T16:54:31;99854.66;;;9.51;100.00
9257;BME280;4665;51.368;6.782;2023-04-01T16:59:53;99863.47;;;9.52;100.00
9257;BME280;4665;51.368;6.782;2023-04-01T17:02:25;99860.63;;;9.53;100.00
9257;BME280;4665;51.368;6.782;2023-04-01T17:10:33;99872.59;;;9.49;100.00
9257;BME280;4665;51.368;6.782;2023-04-01T17:15:50;99883.91;;;9.51;100.00
9257;BME280;4665;51.368;6.782;2023-04-01T17:21:10;99887.56;;;9.50;100.00
9257;BME280;4665;51.368;6.782;2023-04-01T17:23:50;99900.50;;;9.53;100.00
9257;BME280;4665;51.368;6.782;2023-04-01T17:26:38;99894.88;;;9.48;100.00
9257;BME280;4665;51.368;6.782;2023-04-01T17:29:26;99901.22;;;9.47;100.00
9257;BME280;4665;51.368;6.782;2023-04-01T17:32:11;99903.69;;;9.48;100.00
9257;BME280;4665;51.368;6.782;2023-04-01T17:35:03;99911.84;;;9.47;100.00
9257;BME280;4665;51.368;6.782;2023-04-01T17:40:38;99916.31;;;9.46;100.00
9257;BME280;4665;51.368;6.782;2023-04-01T17:45:53;99921.97;;;9.43;100.00
9257;BME280;4665;51.368;6.782;2023-04-01T17:51:16;99933.41;;;9.44;100.00
9257;BME280;4665;51.368;6.782;2023-04-01T17:56:34;99940.91;;;9.40;100.00
9257;BME280;4665;51.368;6.782;2023-04-01T17:59:25;99945.22;;;9.41;100.00
9257;BME280;4665;51.368;6.782;2023-04-01T18:04:49;99954.22;;;9.40;100.00
9257;BME280;4665;51.368;6.782;2023-04-01T18:18:37;99982.78;;;9.38;100.00
9257;BME280;4665;51.368;6.782;2023-04-01T18:24:40;99984.63;;;9.38;100.00
9257;BME280;4665;51.368;6.782;2023-04-01T18:29:41;99991.09;;;9.35;100.00
9257;BME280;4665;51.368;6.782;2023-04-01T18:37:49;100012.38;;;9.35;100.00
9257;BME280;4665;51.368;6.782;2023-04-01T18:40:23;100010.84;;;9.33;100.00
9257;BME280;4665;51.368;6.782;2023-04-01T18:45:41;100016.50;;;9.30;100.00
9257;BME280;4665;51.368;6.782;2023-04-01T18:51:01;100029.63;;;9.31;100.00
9257;BME280;4665;51.368;6.782;2023-04-01T18:53:57;100029.44;;;9.24;100.00
9257;BME280;4665;51.368;6.782;2023-04-01T18:56:31;100034.44;;;9.27;100.00
9257;BME280;4665;51.368;6.782;2023-04-01T19:04:42;100045.41;;;9.24;100.00
9257;BME280;4665;51.368;6.782;2023-04-01T19:09:53;100046.72;;;9.20;100.00
9257;BME280;4665;51.368;6.782;2023-04-01T19:12:37;100047.72;;;9.19;100.00
9257;BME280;4665;51.368;6.782;2023-04-01T19:15:20;100051.34;;;9.18;100.00
9257;BME280;4665;51.368;6.782;2023-04-01T19:20:34;100056.00;;;9.16;100.00
9257;BME280;4665;51.368;6.782;2023-04-01T19:25:54;100067.47;;;9.17;100.00
9257;BME280;4665;51.368;6.782;2023-04-01T19:37:11;100069.13;;;9.18;100.00
9257;BME280;4665;51.368;6.782;2023-04-01T19:42:21;100079.28;;;9.22;100.00
9257;BME280;4665;51.368;6.782;2023-04-01T19:50:37;100078.94;;;9.17;100.00
9257;BME280;4665;51.368;6.782;2023-04-01T19:53:36;100088.56;;;9.18;100.00
9257;BME280;4665;51.368;6.782;2023-04-01T19:56:16;100100.19;;;9.17;100.00
9257;BME280;4665;51.368;6.782;2023-04-01T19:58:53;100107.00;;;9.20;100.00
9257;BME280;4665;51.368;6.782;2023-04-01T20:01:34;100106.84;;;9.21;100.00
9257;BME280;4665;51.368;6.782;2023-04-01T20:04:05;100113.00;;;9.22;100.00
9257;BME280;4665;51.368;6.782;2023-04-01T20:06:55;100122.81;;;9.21;100.00
9257;BME280;4665;51.368;6.782;2023-04-01T20:09:41;100125.75;;;9.18;100.00
9257;BME280;4665;51.368;6.782;2023-04-01T20:15:04;100144.34;;;9.10;100.00
9257;BME280;4665;51.368;6.782;2023-04-01T20:25:23;100169.25;;;9.09;100.00
9257;BME280;4665;51.368;6.782;2023-04-01T20:27:54;100170.91;;;9.10;100.00
9257;BME280;4665;51.368;6.782;2023-04-01T20:39:08;100195.94;;;8.99;100.00
9257;BME280;4665;51.368;6.782;2023-04-01T20:50:39;100216.28;;;8.82;100.00
9257;BME280;4665;51.368;6.782;2023-04-01T20:53:20;100225.00;;;8.75;100.00
9257;BME280;4665;51.368;6.782;2023-04-01T21:15:46;100264.97;;;8.47;100.00
9257;BME280;4665;51.368;6.782;2023-04-01T21:23:58;100277.31;;;8.38;100.00
9257;BME280;4665;51.368;6.782;2023-04-01T21:29:58;100287.47;;;8.25;100.00
9257;BME280;4665;51.368;6.782;2023-04-01T21:32:52;100293.38;;;8.19;100.00
9257;BME280;4665;51.368;6.782;2023-04-01T21:35:29;100307.50;;;8.19;100.00
9257;BME280;4665;51.368;6.782;2023-04-01T21:38:41;100307.94;;;8.15;100.00
9257;BME280;4665;51.368;6.782;2023-04-01T21:41:30;100311.56;;;8.14;100.00
9257;BME280;4665;51.368;6.782;2023-04-01T21:47:08;100331.47;;;8.00;100.00
9257;BME280;4665;51.368;6.782;2023-04-01T22:04:08;100361.47;;;7.83;100.00
9257;BME280;4665;51.368;6.782;2023-04-01T22:07:04;100356.34;;;7.71;100.00
9257;BME280;4665;51.368;6.782;2023-04-01T22:10:20;100383.00;;;7.70;100.00
9257;BME280;4665;51.368;6.782;2023-04-01T22:17:59;100402.16;;;7.64;100.00
9257;BME280;4665;51.368;6.782;2023-04-01T22:20:44;100405.75;;;7.63;100.00
9257;BME280;4665;51.368;6.782;2023-04-01T22:23:32;100410.25;;;7.62;100.00
9257;BME280;4665;51.368;6.782;2023-04-01T22:28:45;100423.34;;;7.64;100.00
9257;BME280;4665;51.368;6.782;2023-04-01T22:31:21;100423.66;;;7.51;100.00
9257;BME280;4665;51.368;6.782;2023-04-01T22:37:03;100431.63;;;7.41;100.00
9257;BME280;4665;51.368;6.782;2023-04-01T22:39:47;100438.34;;;7.45;100.00
9257;BME280;4665;51.368;6.782;2023-04-01T22:45:27;100454.78;;;7.39;100.00
9257;BME280;4665;51.368;6.782;2023-04-01T22:48:20;100446.97;;;7.37;100.00
9257;BME280;4665;51.368;6.782;2023-04-01T22:54:40;100470.69;;;7.39;100.00
9257;BME280;4665;51.368;6.782;2023-04-01T22:56:59;100472.66;;;7.18;100.00
9257;BME280;4665;51.368;6.782;2023-04-01T22:59:35;100480.44;;;7.19;100.00